Andrea — ZDIS8 — position and weather

sailwx.info

Track history (hours):
 
Tides and Currents Weather Stations Pressure Air Temp Water Temp Dewpoint Dewpoint Depression Visibility Wind Speed Wind Dir Waves Ship Positions

Andrea

Last reported at 2018-Jun-24 14:59 UTC. Time now 2018-Jun-24 15:06 UTC.
Position N 52°11' E 004°13'.

Length 134 m; draft 6.2 m.

Type: Cargo ship. MMSI: 236481000.

Date/timePositionNaut miles runAvg speedWind from/ knotsBaromVisibWave heightAir tempDewpointWater temp
2018-Jun-24 14:59N 52°11' E 004°13'0 0.0
2018-Jun-24 14:29N 52°11' E 004°13'0 0.1
2018-Jun-24 13:59N 52°11' E 004°13'0 0.1
2018-Jun-24 13:29N 52°11' E 004°13'0 0.0
2018-Jun-24 12:59N 52°11' E 004°13'0 0.0
2018-Jun-24 12:29N 52°11' E 004°13'0 0.1
2018-Jun-24 11:59N 52°11' E 004°13'0 0.0
2018-Jun-24 11:29N 52°11' E 004°13'0 0.0
2018-Jun-24 10:59N 52°11' E 004°13'0 0.3
2018-Jun-24 10:26N 52°11' E 004°13'0 0.1
2018-Jun-24 09:59N 52°11' E 004°13'0 0.0
2018-Jun-24 09:29N 52°11' E 004°13'0 0.0
2018-Jun-24 08:59N 52°11' E 004°13'0 0.0
2018-Jun-24 08:29N 52°11' E 004°13'0 0.0
2018-Jun-24 07:59N 52°11' E 004°13'0 0.0
2018-Jun-24 07:29N 52°11' E 004°13'0 0.0
2018-Jun-24 06:59N 52°11' E 004°13'0 0.0
2018-Jun-24 06:29N 52°11' E 004°13'0 0.0
2018-Jun-24 05:59N 52°11' E 004°13'2 4.2
2018-Jun-24 05:30N 52°11' E 004°10'815.3
2018-Jun-24 05:00N 52°06' E 003°60'4 9.0
2018-Jun-24 04:30N 52°03' E 003°54'713.9
2018-Jun-24 04:00N 51°59' E 004°04'2 4.1
2018-Jun-24 03:25N 51°57' E 004°02'0 0.0
2018-Jun-24 02:58N 51°57' E 004°02'0 0.0
2018-Jun-24 02:28N 51°57' E 004°02'0 0.0
2018-Jun-24 01:58N 51°57' E 004°02'0 0.0
2018-Jun-24 01:28N 51°57' E 004°02'0 0.0
2018-Jun-24 00:58N 51°57' E 004°02'0 0.0
2018-Jun-24 00:28N 51°57' E 004°02'0 0.0
2018-Jun-23 23:58N 51°57' E 004°02'0 0.0
2018-Jun-23 23:28N 51°57' E 004°02'0 0.0
2018-Jun-23 22:58N 51°57' E 004°02'0 0.0
2018-Jun-23 22:28N 51°57' E 004°02'1 2.8
2018-Jun-23 22:00N 51°58' E 004°04'1 1.9
2018-Jun-23 21:28N 51°58' E 004°02'0 0.0
2018-Jun-23 20:58N 51°58' E 004°02'0 0.0
2018-Jun-23 20:28N 51°58' E 004°02'0 0.0
2018-Jun-23 19:58N 51°58' E 004°02'0 0.0
2018-Jun-23 19:28N 51°58' E 004°02'0 0.0
2018-Jun-23 18:58N 51°58' E 004°02'0 0.0
2018-Jun-23 18:28N 51°58' E 004°02'0 0.0
2018-Jun-23 17:58N 51°58' E 004°02'0 0.0
2018-Jun-23 17:28N 51°58' E 004°02'0 0.0
2018-Jun-23 16:58N 51°58' E 004°02'0 0.0
2018-Jun-23 16:28N 51°58' E 004°02'0 0.0
2018-Jun-23 15:58N 51°58' E 004°02'0 0.0
2018-Jun-23 15:28N 51°58' E 004°02'0 0.0
2018-Jun-23 14:58N 51°58' E 004°02'0 0.0
2018-Jun-23 14:29N 51°58' E 004°02'0 0.4
2018-Jun-23 14:00N 51°58' E 004°02'1 1.9
2018-Jun-23 13:29N 51°58' E 004°03'0 0.0
2018-Jun-23 12:59N 51°58' E 004°03'0 0.0
2018-Jun-23 12:29N 51°58' E 004°03'0 0.0
2018-Jun-23 11:59N 51°58' E 004°03'0 0.0
2018-Jun-23 11:29N 51°58' E 004°03'0 0.0
2018-Jun-23 10:59N 51°58' E 004°03'0 0.0
2018-Jun-23 10:29N 51°58' E 004°03'0 0.0
2018-Jun-23 09:59N 51°58' E 004°03'0 0.0
2018-Jun-23 09:29N 51°58' E 004°03'0 0.0
2018-Jun-23 08:59N 51°58' E 004°03'0 0.0
2018-Jun-23 08:29N 51°58' E 004°03'0 0.0
2018-Jun-23 07:59N 51°58' E 004°03'0 0.0
2018-Jun-23 07:26N 51°58' E 004°03'0 0.0
2018-Jun-23 06:59N 51°58' E 004°03'0 0.0
2018-Jun-23 06:29N 51°58' E 004°03'0 0.0
2018-Jun-23 05:59N 51°58' E 004°03'0 0.4
2018-Jun-23 05:30N 51°58' E 004°03'2 4.5
2018-Jun-23 05:00N 51°57' E 003°60'0 0.0
2018-Jun-23 04:30N 51°57' E 003°60'0 0.0
2018-Jun-23 04:00N 51°57' E 003°60'0 0.0
2018-Jun-23 03:30N 51°57' E 003°60'0 0.0
2018-Jun-23 03:00N 51°57' E 003°60'0 0.0
2018-Jun-23 02:30N 51°57' E 003°60'0 0.0
2018-Jun-23 02:00N 51°57' E 003°60'0 0.0
2018-Jun-23 01:30N 51°57' E 003°60'0 0.0
2018-Jun-23 01:00N 51°57' E 003°60'0 0.0
2018-Jun-23 00:30N 51°57' E 003°60'0 0.0
2018-Jun-22 23:57N 51°57' E 003°60'0 0.0
2018-Jun-22 23:30N 51°57' E 003°60'0 0.0
2018-Jun-22 23:00N 51°57' E 003°60'0 0.3
2018-Jun-22 22:30N 51°57' E 003°60'1 1.5
2018-Jun-22 22:00N 51°58' E 003°60'2 4.1
2018-Jun-22 21:31N 51°58' E 004°03'1 2.8
2018-Jun-22 21:01N 51°59' E 004°02'714.1
2018-Jun-22 20:31N 52°02' E 003°51'5 9.3
2018-Jun-22 20:00N 52°05' E 003°47'5 7.8
2018-Jun-22 19:25N 52°09' E 003°41'0 0.1
2018-Jun-22 18:58N 52°08' E 003°41'0 0.0
2018-Jun-22 18:28N 52°08' E 003°41'0 0.0
2018-Jun-22 17:58N 52°08' E 003°41'0 0.0
2018-Jun-22 17:28N 52°08' E 003°41'0 0.0
2018-Jun-22 16:58N 52°08' E 003°41'0 0.0
2018-Jun-22 16:28N 52°08' E 003°41'0 0.0
2018-Jun-22 15:52N 52°08' E 003°41'0 0.0
2018-Jun-22 15:22N 52°08' E 003°41'0 0.1
2018-Jun-22 14:58N 52°08' E 003°41'3 5.5
2018-Jun-22 14:30N 52°10' E 003°45'611.8
2018-Jun-22 14:01N 52°16' E 003°46'612.4
2018-Jun-22 13:30N 52°22' E 003°48'611.9
2018-Jun-22 13:00N 52°27' E 003°51'3311.6
2018-Jun-22 10:07N 52°60' E 004°06'212.4
2018-Jun-22 09:59N 53°01' E 004°08'612.7
2018-Jun-22 09:30N 53°05' E 004°15'713.2
2018-Jun-22 09:00N 53°09' E 004°23'713.6
2018-Jun-22 08:30N 53°15' E 004°29'714.0
2018-Jun-22 08:00N 53°22' E 004°34'714.0
2018-Jun-22 07:30N 53°27' E 004°40'714.7
2018-Jun-22 07:00N 53°30' E 004°52'714.6
2018-Jun-22 06:31N 53°33' E 005°03'714.0
2018-Jun-22 06:01N 53°35' E 005°14'713.9
2018-Jun-22 05:29N 53°38' E 005°26'8312.5
2018-Jun-21 22:49N 54°01' E 007°41'514.0
2018-Jun-21 22:30N 54°02' E 007°48'714.2
2018-Jun-21 22:00N 54°02' E 008°00'815.3
2018-Jun-21 21:30N 54°01' E 008°13'713.9
2018-Jun-21 21:00N 53°59' E 008°25'918.0
2018-Jun-21 20:30N 53°57' E 008°39'815.3
2018-Jun-21 20:00N 53°51' E 008°47'713.1
2018-Jun-21 19:30N 53°51' E 008°59'611.6
2018-Jun-21 19:00N 53°53' E 009°08'1 1.7
2018-Jun-21 18:31N 53°54' E 009°09'2 3.1
2018-Jun-21 18:00N 53°55' E 009°11'3 6.9
2018-Jun-21 17:30N 53°57' E 009°15'4 8.4
2018-Jun-21 17:00N 54°01' E 009°18'4 8.0
2018-Jun-21 16:30N 54°05' E 009°19'44 6.4
2018-Jun-21 09:35N 54°31' E 010°20'612.5
2018-Jun-21 09:07N 54°33' E 010°29'111.5
2018-Jun-21 09:00N 54°34' E 010°31'713.8
2018-Jun-21 08:30N 54°35' E 010°43'714.1
2018-Jun-21 08:00N 54°36' E 010°55'713.8
2018-Jun-21 07:30N 54°36' E 011°07'815.5
2018-Jun-21 07:00N 54°33' E 011°20'815.7
2018-Jun-21 06:30N 54°30' E 011°32'815.0
2018-Jun-21 06:00N 54°27' E 011°44'714.8
2018-Jun-21 05:30N 54°26' E 011°57'5914.2
2018-Jun-21 01:20N 54°46' E 013°32'615.8
2018-Jun-21 00:56N 54°45' E 013°43'815.7
2018-Jun-21 00:25N 54°43' E 013°56'816.1
2018-Jun-20 23:54N 54°40' E 014°10'916.0
2018-Jun-20 23:21N 54°38' E 014°25'616.0
2018-Jun-20 23:00N 54°39' E 014°35'816.1
2018-Jun-20 22:30N 54°40' E 014°48'815.9
2018-Jun-20 22:00N 54°41' E 015°02'816.0
2018-Jun-20 21:30N 54°42' E 015°16'9416.3
2018-Jun-20 15:43N 54°56' E 017°57'416.2
2018-Jun-20 15:27N 54°56' E 018°05'715.9
2018-Jun-20 15:00N 54°56' E 018°17'815.6
2018-Jun-20 14:31N 54°56' E 018°31'815.4
2018-Jun-20 14:00N 54°53' E 018°44'815.7
2018-Jun-20 13:31N 54°49' E 018°55'713.4
2018-Jun-20 13:01N 54°43' E 018°58'815.4
2018-Jun-20 12:30N 54°35' E 018°54'612.3
2018-Jun-20 12:00N 54°32' E 018°45'510.6
2018-Jun-20 11:30N 54°32' E 018°36'3 6.7
2018-Jun-20 11:00N 54°33' E 018°30'0 0.0
2018-Jun-20 10:30N 54°33' E 018°30'0 0.0
2018-Jun-20 10:00N 54°33' E 018°30'0 0.0
2018-Jun-20 09:30N 54°33' E 018°30'0 0.0
2018-Jun-20 09:00N 54°33' E 018°30'0 0.0
2018-Jun-20 08:30N 54°33' E 018°30'0 0.0
2018-Jun-20 08:00N 54°33' E 018°30'0 0.0
2018-Jun-20 07:30N 54°33' E 018°30'0 0.0
2018-Jun-20 07:00N 54°33' E 018°30'0 0.0
2018-Jun-20 06:30N 54°33' E 018°30'0 0.0
2018-Jun-20 06:00N 54°33' E 018°30'0 0.0
2018-Jun-20 05:30N 54°33' E 018°30'0 0.0
2018-Jun-20 05:00N 54°33' E 018°30'0 0.0
2018-Jun-20 04:30N 54°33' E 018°30'0 0.0
2018-Jun-20 04:00N 54°33' E 018°30'0 0.0
2018-Jun-20 03:30N 54°33' E 018°30'0 0.0
2018-Jun-20 03:00N 54°33' E 018°30'0 0.0
2018-Jun-20 02:30N 54°33' E 018°30'0 0.0
2018-Jun-20 02:00N 54°33' E 018°30'0 0.0
2018-Jun-20 01:30N 54°33' E 018°30'0 0.0
2018-Jun-20 01:00N 54°33' E 018°30'0 0.0
2018-Jun-20 00:30N 54°33' E 018°30'0 0.0
2018-Jun-20 00:00N 54°33' E 018°30'0 0.0
2018-Jun-19 23:30N 54°33' E 018°30'0 0.0
2018-Jun-19 23:00N 54°33' E 018°30'0 0.0
2018-Jun-19 22:30N 54°33' E 018°30'0 0.0
2018-Jun-19 22:00N 54°33' E 018°30'0 0.0
2018-Jun-19 21:30N 54°33' E 018°30'0 0.0
2018-Jun-19 21:00N 54°33' E 018°30'0 0.3
2018-Jun-19 20:30N 54°33' E 018°31'0 0.0
2018-Jun-19 20:00N 54°33' E 018°31'0 0.0
2018-Jun-19 19:30N 54°33' E 018°31'0 0.0
2018-Jun-19 19:00N 54°33' E 018°31'0 0.0
2018-Jun-19 18:30N 54°33' E 018°31'0 0.0
2018-Jun-19 18:00N 54°33' E 018°31'0 0.0
2018-Jun-19 17:30N 54°33' E 018°31'0 0.0
2018-Jun-19 17:00N 54°33' E 018°31'0 0.0
2018-Jun-19 16:30N 54°33' E 018°31'0 0.0
2018-Jun-19 16:00N 54°33' E 018°31'0 0.0
2018-Jun-19 15:30N 54°33' E 018°31'0 0.0
2018-Jun-19 15:00N 54°33' E 018°31'0 0.0
2018-Jun-19 14:30N 54°33' E 018°31'0 0.0
2018-Jun-19 14:00N 54°33' E 018°31'0 0.0
2018-Jun-19 13:30N 54°33' E 018°31'0 0.0
2018-Jun-19 13:00N 54°33' E 018°31'0 0.0
2018-Jun-19 12:30N 54°33' E 018°31'0 0.0
2018-Jun-19 12:00N 54°33' E 018°31'0 0.0
2018-Jun-19 11:30N 54°33' E 018°31'0 0.0
2018-Jun-19 11:00N 54°33' E 018°31'0 0.0
2018-Jun-19 10:30N 54°33' E 018°31'0 0.0
2018-Jun-19 10:00N 54°33' E 018°31'0 0.0
2018-Jun-19 09:30N 54°33' E 018°31'0 0.0
2018-Jun-19 09:00N 54°33' E 018°31'0 0.0
2018-Jun-19 08:31N 54°33' E 018°31'1 2.5
2018-Jun-19 08:00N 54°32' E 018°32'4 8.5
2018-Jun-19 07:30N 54°32' E 018°40'611.2
2018-Jun-19 07:01N 54°33' E 018°49'611.6
2018-Jun-19 06:30N 54°38' E 018°55'612.2
2018-Jun-19 06:00N 54°44' E 018°57'611.5
2018-Jun-19 05:30N 54°49' E 018°51'612.8
2018-Jun-19 05:01N 54°53' E 018°43'612.3
2018-Jun-19 04:30N 54°55' E 018°33'612.9
2018-Jun-19 04:01N 54°55' E 018°22'712.8
2018-Jun-19 03:30N 54°55' E 018°10'712.8
2018-Jun-19 02:59N 54°55' E 017°59'1413.0
2018-Jun-19 01:53N 54°54' E 017°34'15812.7
2018-Jun-18 13:29N 54°44' E 013°01'613.5
2018-Jun-18 13:00N 54°44' E 012°49'612.8
2018-Jun-18 12:30N 54°42' E 012°39'611.8
2018-Jun-18 12:00N 54°39' E 012°31'612.9
2018-Jun-18 11:30N 54°35' E 012°22'713.1
2018-Jun-18 11:00N 54°29' E 012°16'1712.7
2018-Jun-18 09:37N 54°25' E 011°47'212.7
2018-Jun-18 09:30N 54°25' E 011°44'713.7
2018-Jun-18 09:01N 54°28' E 011°34'612.5
2018-Jun-18 08:30N 54°31' E 011°24'714.8
2018-Jun-18 08:00N 54°34' E 011°13'714.9
2018-Jun-18 07:30N 54°35' E 011°00'815.4
2018-Jun-18 07:00N 54°34' E 010°47'33 7.8
2018-Jun-18 02:44N 54°21' E 009°54'2 8.5
2018-Jun-18 02:30N 54°22' E 009°51'4 7.7
2018-Jun-18 02:00N 54°20' E 009°45'3 6.2
2018-Jun-18 01:30N 54°18' E 009°42'3 6.9
2018-Jun-18 01:00N 54°16' E 009°37'3 6.5
2018-Jun-18 00:30N 54°13' E 009°35'4 8.2
2018-Jun-18 00:00N 54°11' E 009°29'4 8.3
2018-Jun-17 23:30N 54°09' E 009°22'4 7.7
2018-Jun-17 23:00N 54°06' E 009°20'3 6.7
2018-Jun-17 22:31N 54°02' E 009°18'3 5.7
2018-Jun-17 22:00N 53°60' E 009°17'4 8.5
2018-Jun-17 21:30N 53°56' E 009°13'4 7.3
2018-Jun-17 21:00N 53°54' E 009°09'0 0.0
2018-Jun-17 20:31N 53°54' E 009°09'2 3.4
2018-Jun-17 20:00N 53°53' E 009°06'0 0.1
2018-Jun-17 19:28N 53°53' E 009°06'0 0.0
2018-Jun-17 18:58N 53°53' E 009°06'0 0.1
2018-Jun-17 18:28N 53°53' E 009°06'0 0.1
2018-Jun-17 17:58N 53°53' E 009°06'0 0.3
2018-Jun-17 17:28N 53°53' E 009°06'0 0.2
2018-Jun-17 16:58N 53°53' E 009°06'1 1.2
2018-Jun-17 16:30N 53°52' E 009°06'510.9
2018-Jun-17 16:00N 53°51' E 008°57'815.2
2018-Jun-17 15:31N 53°52' E 008°44'815.3
2018-Jun-17 15:00N 53°58' E 008°36'916.8
2018-Jun-17 14:28N 53°59' E 008°21'714.7
2018-Jun-17 14:00N 53°59' E 008°09'814.5
2018-Jun-17 13:29N 53°58' E 007°56'8914.6
2018-Jun-17 07:25N 53°35' E 005°32'717.1
2018-Jun-17 07:00N 53°33' E 005°20'816.9
2018-Jun-17 06:30N 53°30' E 005°07'816.8
2018-Jun-17 06:00N 53°27' E 004°54'2117.0
2018-Jun-17 04:48N 53°11' E 004°33'617.1
2018-Jun-17 04:29N 53°06' E 004°28'816.8
2018-Jun-17 04:00N 52°59' E 004°21'916.9
2018-Jun-17 03:27N 52°51' E 004°13'716.7
2018-Jun-17 03:00N 52°45' E 004°06'816.5
2018-Jun-17 02:30N 52°38' E 003°60'816.1
2018-Jun-17 02:00N 52°30' E 003°54'815.9
2018-Jun-17 01:31N 52°23' E 003°52'815.6
2018-Jun-17 01:00N 52°15' E 003°53'815.7
2018-Jun-17 00:30N 52°07' E 003°54'510.8
2018-Jun-17 00:01N 52°02' E 003°56'713.5
2018-Jun-16 23:31N 51°58' E 004°05'2 3.4
2018-Jun-16 23:00N 51°58' E 004°02'0 0.0
2018-Jun-16 22:29N 51°58' E 004°02'0 0.0
2018-Jun-16 21:59N 51°58' E 004°02'0 0.0
2018-Jun-16 21:29N 51°58' E 004°02'0 0.0
2018-Jun-16 20:59N 51°58' E 004°02'0 0.0
2018-Jun-16 20:29N 51°58' E 004°02'0 0.0
2018-Jun-16 19:59N 51°58' E 004°02'0 0.0
2018-Jun-16 19:29N 51°58' E 004°02'0 0.0
2018-Jun-16 18:59N 51°58' E 004°02'0 0.0
2018-Jun-16 18:29N 51°58' E 004°02'0 0.0
2018-Jun-16 17:59N 51°58' E 004°02'0 0.0
2018-Jun-16 17:29N 51°58' E 004°02'0 0.0
2018-Jun-16 16:59N 51°58' E 004°02'0 0.0
2018-Jun-16 16:29N 51°58' E 004°02'0 0.0
2018-Jun-16 15:59N 51°58' E 004°02'0 0.0
2018-Jun-16 15:29N 51°58' E 004°02'0 0.0
2018-Jun-16 14:59N 51°58' E 004°02'0 0.0
2018-Jun-16 14:29N 51°58' E 004°02'0 0.2
2018-Jun-16 14:01N 51°58' E 004°02'2 3.1
2018-Jun-16 13:30N 51°57' E 004°03'0 0.0
2018-Jun-16 12:59N 51°57' E 004°03'0 0.0
2018-Jun-16 12:29N 51°57' E 004°03'0 0.0
2018-Jun-16 11:59N 51°57' E 004°03'0 0.0
2018-Jun-16 11:29N 51°57' E 004°03'0 0.0
2018-Jun-16 10:59N 51°57' E 004°03'0 0.0
2018-Jun-16 10:29N 51°57' E 004°03'0 0.0
2018-Jun-16 09:59N 51°57' E 004°03'0 0.0
2018-Jun-16 09:29N 51°57' E 004°03'0 0.0
2018-Jun-16 08:59N 51°57' E 004°03'0 0.0
2018-Jun-16 08:29N 51°57' E 004°03'0 0.0
2018-Jun-16 07:59N 51°57' E 004°03'0 0.0
2018-Jun-16 07:29N 51°57' E 004°03'0 0.0
2018-Jun-16 06:59N 51°57' E 004°03'0 0.0
2018-Jun-16 06:29N 51°57' E 004°03'0 0.0
2018-Jun-16 05:56N 51°57' E 004°03'0 0.0
2018-Jun-16 05:29N 51°57' E 004°03'0 0.0
2018-Jun-16 04:59N 51°57' E 004°03'0 0.0
2018-Jun-16 04:29N 51°57' E 004°03'0 0.0
2018-Jun-16 03:59N 51°57' E 004°03'0 0.0
2018-Jun-16 03:29N 51°57' E 004°03'0 0.0
2018-Jun-16 02:59N 51°57' E 004°03'0 0.0
2018-Jun-16 02:29N 51°57' E 004°03'0 0.0
2018-Jun-16 01:59N 51°57' E 004°03'0 0.0
2018-Jun-16 01:29N 51°57' E 004°03'0 0.0
2018-Jun-16 00:59N 51°57' E 004°03'0 0.0
2018-Jun-16 00:29N 51°57' E 004°03'0 0.0
2018-Jun-15 23:59N 51°57' E 004°03'0 0.0
2018-Jun-15 23:29N 51°57' E 004°03'0 0.0
2018-Jun-15 22:59N 51°57' E 004°03'0 0.0
2018-Jun-15 22:30N 51°57' E 004°03'0 0.9
2018-Jun-15 22:00N 51°57' E 004°03'0 0.0
2018-Jun-15 21:30N 51°57' E 004°03'0 0.0
2018-Jun-15 21:00N 51°57' E 004°03'0 0.0
2018-Jun-15 20:30N 51°57' E 004°03'0 0.0
2018-Jun-15 20:00N 51°57' E 004°03'0 0.0
2018-Jun-15 19:30N 51°57' E 004°03'0 0.0
2018-Jun-15 19:00N 51°57' E 004°03'0 0.0
2018-Jun-15 18:30N 51°57' E 004°03'0 0.0
2018-Jun-15 18:01N 51°57' E 004°03'1 2.7
2018-Jun-15 17:31N 51°57' E 004°05'1 1.8
2018-Jun-15 16:59N 51°58' E 004°03'0 0.0
2018-Jun-15 16:29N 51°58' E 004°03'0 0.0
2018-Jun-15 15:59N 51°58' E 004°03'0 0.0
2018-Jun-15 15:29N 51°58' E 004°03'0 0.0
2018-Jun-15 14:59N 51°58' E 004°03'0 0.0
2018-Jun-15 14:29N 51°58' E 004°03'0 0.0
2018-Jun-15 13:59N 51°58' E 004°03'0 0.0
2018-Jun-15 13:29N 51°58' E 004°03'0 0.0
2018-Jun-15 12:59N 51°58' E 004°03'0 0.0
2018-Jun-15 12:29N 51°58' E 004°03'0 0.0
2018-Jun-15 11:59N 51°58' E 004°03'0 0.0
2018-Jun-15 11:29N 51°58' E 004°03'0 0.0
2018-Jun-15 10:59N 51°58' E 004°03'0 0.0
2018-Jun-15 10:29N 51°58' E 004°03'0 0.0
2018-Jun-15 09:59N 51°58' E 004°03'0 0.0
2018-Jun-15 09:29N 51°58' E 004°03'0 0.0
2018-Jun-15 08:59N 51°58' E 004°03'0 0.0
2018-Jun-15 08:29N 51°58' E 004°03'0 0.0
2018-Jun-15 07:56N 51°58' E 004°03'0 0.0
2018-Jun-15 07:29N 51°58' E 004°03'0 0.0
2018-Jun-15 06:59N 51°58' E 004°03'0 0.0
2018-Jun-15 06:23N 51°58' E 004°03'0 0.0
2018-Jun-15 05:59N 51°58' E 004°03'0 0.0
2018-Jun-15 05:29N 51°58' E 004°03'0 0.0
2018-Jun-15 04:59N 51°58' E 004°03'0 0.0
2018-Jun-15 04:29N 51°58' E 004°03'0 0.0
2018-Jun-15 03:59N 51°58' E 004°03'0 0.0
2018-Jun-15 03:29N 51°58' E 004°03'0 0.0
2018-Jun-15 02:59N 51°58' E 004°03'0 0.0
2018-Jun-15 02:29N 51°58' E 004°03'0 0.0
2018-Jun-15 01:59N 51°58' E 004°03'0 0.0
2018-Jun-15 01:29N 51°58' E 004°03'0 0.0
2018-Jun-15 00:59N 51°58' E 004°03'0 0.0
2018-Jun-15 00:29N 51°58' E 004°03'0 0.0
2018-Jun-14 23:59N 51°58' E 004°03'0 0.0
2018-Jun-14 23:29N 51°58' E 004°03'0 0.0
2018-Jun-14 22:59N 51°58' E 004°03'0 0.0
2018-Jun-14 22:29N 51°58' E 004°03'0 0.0
2018-Jun-14 21:59N 51°58' E 004°03'0 0.0
2018-Jun-14 21:26N 51°58' E 004°03'0 0.0
2018-Jun-14 20:59N 51°58' E 004°03'0 0.0
2018-Jun-14 20:29N 51°58' E 004°03'0 0.0
2018-Jun-14 19:59N 51°58' E 004°03'0 0.0
2018-Jun-14 19:29N 51°58' E 004°03'0 0.0
2018-Jun-14 18:59N 51°58' E 004°03'0 0.0
2018-Jun-14 18:29N 51°58' E 004°03'0 0.0
2018-Jun-14 17:59N 51°58' E 004°03'0 0.0
2018-Jun-14 17:29N 51°58' E 004°03'0 0.0
2018-Jun-14 16:59N 51°58' E 004°03'0 0.0
2018-Jun-14 16:29N 51°58' E 004°03'0 0.0
2018-Jun-14 15:59N 51°58' E 004°03'0 1.0
2018-Jun-14 15:30N 51°58' E 004°04'  
Track history (hours):
 
Tides and Currents Weather Stations Pressure Air Temp Water Temp Dewpoint Dewpoint Depression Visibility Wind Speed Wind Dir Waves Ship Positions

Andrea

Last reported at 2018-Jun-24 14:59 UTC. Time now 2018-Jun-24 15:06 UTC.
Position N 52°11' E 004°13'.

Length 134 m; draft 6.2 m.

Type: Cargo ship. MMSI: 236481000.

Date/timePositionNaut miles runAvg speedWind from/ knotsBaromVisibWave heightAir tempDewpointWater temp
2018-Jun-24 14:59N 52°11' E 004°13'0 0.0
2018-Jun-24 14:29N 52°11' E 004°13'0 0.1
2018-Jun-24 13:59N 52°11' E 004°13'0 0.1
2018-Jun-24 13:29N 52°11' E 004°13'0 0.0
2018-Jun-24 12:59N 52°11' E 004°13'0 0.0
2018-Jun-24 12:29N 52°11' E 004°13'0 0.1
2018-Jun-24 11:59N 52°11' E 004°13'0 0.0
2018-Jun-24 11:29N 52°11' E 004°13'0 0.0
2018-Jun-24 10:59N 52°11' E 004°13'0 0.3
2018-Jun-24 10:26N 52°11' E 004°13'0 0.1
2018-Jun-24 09:59N 52°11' E 004°13'0 0.0
2018-Jun-24 09:29N 52°11' E 004°13'0 0.0
2018-Jun-24 08:59N 52°11' E 004°13'0 0.0
2018-Jun-24 08:29N 52°11' E 004°13'0 0.0
2018-Jun-24 07:59N 52°11' E 004°13'0 0.0
2018-Jun-24 07:29N 52°11' E 004°13'0 0.0
2018-Jun-24 06:59N 52°11' E 004°13'0 0.0
2018-Jun-24 06:29N 52°11' E 004°13'0 0.0
2018-Jun-24 05:59N 52°11' E 004°13'2 4.2
2018-Jun-24 05:30N 52°11' E 004°10'815.3
2018-Jun-24 05:00N 52°06' E 003°60'4 9.0
2018-Jun-24 04:30N 52°03' E 003°54'713.9
2018-Jun-24 04:00N 51°59' E 004°04'2 4.1
2018-Jun-24 03:25N 51°57' E 004°02'0 0.0
2018-Jun-24 02:58N 51°57' E 004°02'0 0.0
2018-Jun-24 02:28N 51°57' E 004°02'0 0.0
2018-Jun-24 01:58N 51°57' E 004°02'0 0.0
2018-Jun-24 01:28N 51°57' E 004°02'0 0.0
2018-Jun-24 00:58N 51°57' E 004°02'0 0.0
2018-Jun-24 00:28N 51°57' E 004°02'0 0.0
2018-Jun-23 23:58N 51°57' E 004°02'0 0.0
2018-Jun-23 23:28N 51°57' E 004°02'0 0.0
2018-Jun-23 22:58N 51°57' E 004°02'0 0.0
2018-Jun-23 22:28N 51°57' E 004°02'1 2.8
2018-Jun-23 22:00N 51°58' E 004°04'1 1.9
2018-Jun-23 21:28N 51°58' E 004°02'0 0.0
2018-Jun-23 20:58N 51°58' E 004°02'0 0.0
2018-Jun-23 20:28N 51°58' E 004°02'0 0.0
2018-Jun-23 19:58N 51°58' E 004°02'0 0.0
2018-Jun-23 19:28N 51°58' E 004°02'0 0.0
2018-Jun-23 18:58N 51°58' E 004°02'0 0.0
2018-Jun-23 18:28N 51°58' E 004°02'0 0.0
2018-Jun-23 17:58N 51°58' E 004°02'0 0.0
2018-Jun-23 17:28N 51°58' E 004°02'0 0.0
2018-Jun-23 16:58N 51°58' E 004°02'0 0.0
2018-Jun-23 16:28N 51°58' E 004°02'0 0.0
2018-Jun-23 15:58N 51°58' E 004°02'0 0.0
2018-Jun-23 15:28N 51°58' E 004°02'0 0.0
2018-Jun-23 14:58N 51°58' E 004°02'0 0.0
2018-Jun-23 14:29N 51°58' E 004°02'0 0.4
2018-Jun-23 14:00N 51°58' E 004°02'1 1.9
2018-Jun-23 13:29N 51°58' E 004°03'0 0.0
2018-Jun-23 12:59N 51°58' E 004°03'0 0.0
2018-Jun-23 12:29N 51°58' E 004°03'0 0.0
2018-Jun-23 11:59N 51°58' E 004°03'0 0.0
2018-Jun-23 11:29N 51°58' E 004°03'0 0.0
2018-Jun-23 10:59N 51°58' E 004°03'0 0.0
2018-Jun-23 10:29N 51°58' E 004°03'0 0.0
2018-Jun-23 09:59N 51°58' E 004°03'0 0.0
2018-Jun-23 09:29N 51°58' E 004°03'0 0.0
2018-Jun-23 08:59N 51°58' E 004°03'0 0.0
2018-Jun-23 08:29N 51°58' E 004°03'0 0.0
2018-Jun-23 07:59N 51°58' E 004°03'0 0.0
2018-Jun-23 07:26N 51°58' E 004°03'0 0.0
2018-Jun-23 06:59N 51°58' E 004°03'0 0.0
2018-Jun-23 06:29N 51°58' E 004°03'0 0.0
2018-Jun-23 05:59N 51°58' E 004°03'0 0.4
2018-Jun-23 05:30N 51°58' E 004°03'2 4.5
2018-Jun-23 05:00N 51°57' E 003°60'0 0.0
2018-Jun-23 04:30N 51°57' E 003°60'0 0.0
2018-Jun-23 04:00N 51°57' E 003°60'0 0.0
2018-Jun-23 03:30N 51°57' E 003°60'0 0.0
2018-Jun-23 03:00N 51°57' E 003°60'0 0.0
2018-Jun-23 02:30N 51°57' E 003°60'0 0.0
2018-Jun-23 02:00N 51°57' E 003°60'0 0.0
2018-Jun-23 01:30N 51°57' E 003°60'0 0.0
2018-Jun-23 01:00N 51°57' E 003°60'0 0.0
2018-Jun-23 00:30N 51°57' E 003°60'0 0.0
2018-Jun-22 23:57N 51°57' E 003°60'0 0.0
2018-Jun-22 23:30N 51°57' E 003°60'0 0.0
2018-Jun-22 23:00N 51°57' E 003°60'0 0.3
2018-Jun-22 22:30N 51°57' E 003°60'1 1.5
2018-Jun-22 22:00N 51°58' E 003°60'2 4.1
2018-Jun-22 21:31N 51°58' E 004°03'1 2.8
2018-Jun-22 21:01N 51°59' E 004°02'714.1
2018-Jun-22 20:31N 52°02' E 003°51'5 9.3
2018-Jun-22 20:00N 52°05' E 003°47'5 7.8
2018-Jun-22 19:25N 52°09' E 003°41'0 0.1
2018-Jun-22 18:58N 52°08' E 003°41'0 0.0
2018-Jun-22 18:28N 52°08' E 003°41'0 0.0
2018-Jun-22 17:58N 52°08' E 003°41'0 0.0
2018-Jun-22 17:28N 52°08' E 003°41'0 0.0
2018-Jun-22 16:58N 52°08' E 003°41'0 0.0
2018-Jun-22 16:28N 52°08' E 003°41'0 0.0
2018-Jun-22 15:52N 52°08' E 003°41'0 0.0
2018-Jun-22 15:22N 52°08' E 003°41'0 0.1
2018-Jun-22 14:58N 52°08' E 003°41'3 5.5
2018-Jun-22 14:30N 52°10' E 003°45'611.8
2018-Jun-22 14:01N 52°16' E 003°46'612.4
2018-Jun-22 13:30N 52°22' E 003°48'611.9
2018-Jun-22 13:00N 52°27' E 003°51'3311.6
2018-Jun-22 10:07N 52°60' E 004°06'212.4
2018-Jun-22 09:59N 53°01' E 004°08'612.7
2018-Jun-22 09:30N 53°05' E 004°15'713.2
2018-Jun-22 09:00N 53°09' E 004°23'713.6
2018-Jun-22 08:30N 53°15' E 004°29'714.0
2018-Jun-22 08:00N 53°22' E 004°34'714.0
2018-Jun-22 07:30N 53°27' E 004°40'714.7
2018-Jun-22 07:00N 53°30' E 004°52'714.6
2018-Jun-22 06:31N 53°33' E 005°03'714.0
2018-Jun-22 06:01N 53°35' E 005°14'713.9
2018-Jun-22 05:29N 53°38' E 005°26'8312.5
2018-Jun-21 22:49N 54°01' E 007°41'514.0
2018-Jun-21 22:30N 54°02' E 007°48'714.2
2018-Jun-21 22:00N 54°02' E 008°00'815.3
2018-Jun-21 21:30N 54°01' E 008°13'713.9
2018-Jun-21 21:00N 53°59' E 008°25'918.0
2018-Jun-21 20:30N 53°57' E 008°39'815.3
2018-Jun-21 20:00N 53°51' E 008°47'713.1
2018-Jun-21 19:30N 53°51' E 008°59'611.6
2018-Jun-21 19:00N 53°53' E 009°08'1 1.7
2018-Jun-21 18:31N 53°54' E 009°09'2 3.1
2018-Jun-21 18:00N 53°55' E 009°11'3 6.9
2018-Jun-21 17:30N 53°57' E 009°15'4 8.4
2018-Jun-21 17:00N 54°01' E 009°18'4 8.0
2018-Jun-21 16:30N 54°05' E 009°19'44 6.4
2018-Jun-21 09:35N 54°31' E 010°20'612.5
2018-Jun-21 09:07N 54°33' E 010°29'111.5
2018-Jun-21 09:00N 54°34' E 010°31'713.8
2018-Jun-21 08:30N 54°35' E 010°43'714.1
2018-Jun-21 08:00N 54°36' E 010°55'713.8
2018-Jun-21 07:30N 54°36' E 011°07'815.5
2018-Jun-21 07:00N 54°33' E 011°20'815.7
2018-Jun-21 06:30N 54°30' E 011°32'815.0
2018-Jun-21 06:00N 54°27' E 011°44'714.8
2018-Jun-21 05:30N 54°26' E 011°57'5914.2
2018-Jun-21 01:20N 54°46' E 013°32'615.8
2018-Jun-21 00:56N 54°45' E 013°43'815.7
2018-Jun-21 00:25N 54°43' E 013°56'816.1
2018-Jun-20 23:54N 54°40' E 014°10'916.0
2018-Jun-20 23:21N 54°38' E 014°25'616.0
2018-Jun-20 23:00N 54°39' E 014°35'816.1
2018-Jun-20 22:30N 54°40' E 014°48'815.9
2018-Jun-20 22:00N 54°41' E 015°02'816.0
2018-Jun-20 21:30N 54°42' E 015°16'9416.3
2018-Jun-20 15:43N 54°56' E 017°57'416.2
2018-Jun-20 15:27N 54°56' E 018°05'715.9
2018-Jun-20 15:00N 54°56' E 018°17'815.6
2018-Jun-20 14:31N 54°56' E 018°31'815.4
2018-Jun-20 14:00N 54°53' E 018°44'815.7
2018-Jun-20 13:31N 54°49' E 018°55'713.4
2018-Jun-20 13:01N 54°43' E 018°58'815.4
2018-Jun-20 12:30N 54°35' E 018°54'612.3
2018-Jun-20 12:00N 54°32' E 018°45'510.6
2018-Jun-20 11:30N 54°32' E 018°36'3 6.7
2018-Jun-20 11:00N 54°33' E 018°30'0 0.0
2018-Jun-20 10:30N 54°33' E 018°30'0 0.0
2018-Jun-20 10:00N 54°33' E 018°30'0 0.0
2018-Jun-20 09:30N 54°33' E 018°30'0 0.0
2018-Jun-20 09:00N 54°33' E 018°30'0 0.0
2018-Jun-20 08:30N 54°33' E 018°30'0 0.0
2018-Jun-20 08:00N 54°33' E 018°30'0 0.0
2018-Jun-20 07:30N 54°33' E 018°30'0 0.0
2018-Jun-20 07:00N 54°33' E 018°30'0 0.0
2018-Jun-20 06:30N 54°33' E 018°30'0 0.0
2018-Jun-20 06:00N 54°33' E 018°30'0 0.0
2018-Jun-20 05:30N 54°33' E 018°30'0 0.0
2018-Jun-20 05:00N 54°33' E 018°30'0 0.0
2018-Jun-20 04:30N 54°33' E 018°30'0 0.0
2018-Jun-20 04:00N 54°33' E 018°30'0 0.0
2018-Jun-20 03:30N 54°33' E 018°30'0 0.0
2018-Jun-20 03:00N 54°33' E 018°30'0 0.0
2018-Jun-20 02:30N 54°33' E 018°30'0 0.0
2018-Jun-20 02:00N 54°33' E 018°30'0 0.0
2018-Jun-20 01:30N 54°33' E 018°30'0 0.0
2018-Jun-20 01:00N 54°33' E 018°30'0 0.0
2018-Jun-20 00:30N 54°33' E 018°30'0 0.0
2018-Jun-20 00:00N 54°33' E 018°30'0 0.0
2018-Jun-19 23:30N 54°33' E 018°30'0 0.0
2018-Jun-19 23:00N 54°33' E 018°30'0 0.0
2018-Jun-19 22:30N 54°33' E 018°30'0 0.0
2018-Jun-19 22:00N 54°33' E 018°30'0 0.0
2018-Jun-19 21:30N 54°33' E 018°30'0 0.0
2018-Jun-19 21:00N 54°33' E 018°30'0 0.3
2018-Jun-19 20:30N 54°33' E 018°31'0 0.0
2018-Jun-19 20:00N 54°33' E 018°31'0 0.0
2018-Jun-19 19:30N 54°33' E 018°31'0 0.0
2018-Jun-19 19:00N 54°33' E 018°31'0 0.0
2018-Jun-19 18:30N 54°33' E 018°31'0 0.0
2018-Jun-19 18:00N 54°33' E 018°31'0 0.0
2018-Jun-19 17:30N 54°33' E 018°31'0 0.0
2018-Jun-19 17:00N 54°33' E 018°31'0 0.0
2018-Jun-19 16:30N 54°33' E 018°31'0 0.0
2018-Jun-19 16:00N 54°33' E 018°31'0 0.0
2018-Jun-19 15:30N 54°33' E 018°31'0 0.0
2018-Jun-19 15:00N 54°33' E 018°31'0 0.0
2018-Jun-19 14:30N 54°33' E 018°31'0 0.0
2018-Jun-19 14:00N 54°33' E 018°31'0 0.0
2018-Jun-19 13:30N 54°33' E 018°31'0 0.0
2018-Jun-19 13:00N 54°33' E 018°31'0 0.0
2018-Jun-19 12:30N 54°33' E 018°31'0 0.0
2018-Jun-19 12:00N 54°33' E 018°31'0 0.0
2018-Jun-19 11:30N 54°33' E 018°31'0 0.0
2018-Jun-19 11:00N 54°33' E 018°31'0 0.0
2018-Jun-19 10:30N 54°33' E 018°31'0 0.0
2018-Jun-19 10:00N 54°33' E 018°31'0 0.0
2018-Jun-19 09:30N 54°33' E 018°31'0 0.0
2018-Jun-19 09:00N 54°33' E 018°31'0 0.0
2018-Jun-19 08:31N 54°33' E 018°31'1 2.5
2018-Jun-19 08:00N 54°32' E 018°32'4 8.5
2018-Jun-19 07:30N 54°32' E 018°40'611.2
2018-Jun-19 07:01N 54°33' E 018°49'611.6
2018-Jun-19 06:30N 54°38' E 018°55'612.2
2018-Jun-19 06:00N 54°44' E 018°57'611.5
2018-Jun-19 05:30N 54°49' E 018°51'612.8
2018-Jun-19 05:01N 54°53' E 018°43'612.3
2018-Jun-19 04:30N 54°55' E 018°33'612.9
2018-Jun-19 04:01N 54°55' E 018°22'712.8
2018-Jun-19 03:30N 54°55' E 018°10'712.8
2018-Jun-19 02:59N 54°55' E 017°59'1413.0
2018-Jun-19 01:53N 54°54' E 017°34'15812.7
2018-Jun-18 13:29N 54°44' E 013°01'613.5
2018-Jun-18 13:00N 54°44' E 012°49'612.8
2018-Jun-18 12:30N 54°42' E 012°39'611.8
2018-Jun-18 12:00N 54°39' E 012°31'612.9
2018-Jun-18 11:30N 54°35' E 012°22'713.1
2018-Jun-18 11:00N 54°29' E 012°16'1712.7
2018-Jun-18 09:37N 54°25' E 011°47'212.7
2018-Jun-18 09:30N 54°25' E 011°44'713.7
2018-Jun-18 09:01N 54°28' E 011°34'612.5
2018-Jun-18 08:30N 54°31' E 011°24'714.8
2018-Jun-18 08:00N 54°34' E 011°13'714.9
2018-Jun-18 07:30N 54°35' E 011°00'815.4
2018-Jun-18 07:00N 54°34' E 010°47'33 7.8
2018-Jun-18 02:44N 54°21' E 009°54'2 8.5
2018-Jun-18 02:30N 54°22' E 009°51'4 7.7
2018-Jun-18 02:00N 54°20' E 009°45'3 6.2
2018-Jun-18 01:30N 54°18' E 009°42'3 6.9
2018-Jun-18 01:00N 54°16' E 009°37'3 6.5
2018-Jun-18 00:30N 54°13' E 009°35'4 8.2
2018-Jun-18 00:00N 54°11' E 009°29'4 8.3
2018-Jun-17 23:30N 54°09' E 009°22'4 7.7
2018-Jun-17 23:00N 54°06' E 009°20'3 6.7
2018-Jun-17 22:31N 54°02' E 009°18'3 5.7
2018-Jun-17 22:00N 53°60' E 009°17'4 8.5
2018-Jun-17 21:30N 53°56' E 009°13'4 7.3
2018-Jun-17 21:00N 53°54' E 009°09'0 0.0
2018-Jun-17 20:31N 53°54' E 009°09'2 3.4
2018-Jun-17 20:00N 53°53' E 009°06'0 0.1
2018-Jun-17 19:28N 53°53' E 009°06'0 0.0
2018-Jun-17 18:58N 53°53' E 009°06'0 0.1
2018-Jun-17 18:28N 53°53' E 009°06'0 0.1
2018-Jun-17 17:58N 53°53' E 009°06'0 0.3
2018-Jun-17 17:28N 53°53' E 009°06'0 0.2
2018-Jun-17 16:58N 53°53' E 009°06'1 1.2
2018-Jun-17 16:30N 53°52' E 009°06'510.9
2018-Jun-17 16:00N 53°51' E 008°57'815.2
2018-Jun-17 15:31N 53°52' E 008°44'815.3
2018-Jun-17 15:00N 53°58' E 008°36'916.8
2018-Jun-17 14:28N 53°59' E 008°21'714.7
2018-Jun-17 14:00N 53°59' E 008°09'814.5
2018-Jun-17 13:29N 53°58' E 007°56'8914.6
2018-Jun-17 07:25N 53°35' E 005°32'717.1
2018-Jun-17 07:00N 53°33' E 005°20'816.9
2018-Jun-17 06:30N 53°30' E 005°07'816.8
2018-Jun-17 06:00N 53°27' E 004°54'2117.0
2018-Jun-17 04:48N 53°11' E 004°33'617.1
2018-Jun-17 04:29N 53°06' E 004°28'816.8
2018-Jun-17 04:00N 52°59' E 004°21'916.9
2018-Jun-17 03:27N 52°51' E 004°13'716.7
2018-Jun-17 03:00N 52°45' E 004°06'816.5
2018-Jun-17 02:30N 52°38' E 003°60'816.1
2018-Jun-17 02:00N 52°30' E 003°54'815.9
2018-Jun-17 01:31N 52°23' E 003°52'815.6
2018-Jun-17 01:00N 52°15' E 003°53'815.7
2018-Jun-17 00:30N 52°07' E 003°54'510.8
2018-Jun-17 00:01N 52°02' E 003°56'713.5
2018-Jun-16 23:31N 51°58' E 004°05'2 3.4
2018-Jun-16 23:00N 51°58' E 004°02'0 0.0
2018-Jun-16 22:29N 51°58' E 004°02'0 0.0
2018-Jun-16 21:59N 51°58' E 004°02'0 0.0
2018-Jun-16 21:29N 51°58' E 004°02'0 0.0
2018-Jun-16 20:59N 51°58' E 004°02'0 0.0
2018-Jun-16 20:29N 51°58' E 004°02'0 0.0
2018-Jun-16 19:59N 51°58' E 004°02'0 0.0
2018-Jun-16 19:29N 51°58' E 004°02'0 0.0
2018-Jun-16 18:59N 51°58' E 004°02'0 0.0
2018-Jun-16 18:29N 51°58' E 004°02'0 0.0
2018-Jun-16 17:59N 51°58' E 004°02'0 0.0
2018-Jun-16 17:29N 51°58' E 004°02'0 0.0
2018-Jun-16 16:59N 51°58' E 004°02'0 0.0
2018-Jun-16 16:29N 51°58' E 004°02'0 0.0
2018-Jun-16 15:59N 51°58' E 004°02'0 0.0
2018-Jun-16 15:29N 51°58' E 004°02'0 0.0
2018-Jun-16 14:59N 51°58' E 004°02'0 0.0
2018-Jun-16 14:29N 51°58' E 004°02'0 0.2
2018-Jun-16 14:01N 51°58' E 004°02'2 3.1
2018-Jun-16 13:30N 51°57' E 004°03'0 0.0
2018-Jun-16 12:59N 51°57' E 004°03'0 0.0
2018-Jun-16 12:29N 51°57' E 004°03'0 0.0
2018-Jun-16 11:59N 51°57' E 004°03'0 0.0
2018-Jun-16 11:29N 51°57' E 004°03'0 0.0
2018-Jun-16 10:59N 51°57' E 004°03'0 0.0
2018-Jun-16 10:29N 51°57' E 004°03'0 0.0
2018-Jun-16 09:59N 51°57' E 004°03'0 0.0
2018-Jun-16 09:29N 51°57' E 004°03'0 0.0
2018-Jun-16 08:59N 51°57' E 004°03'0 0.0
2018-Jun-16 08:29N 51°57' E 004°03'0 0.0
2018-Jun-16 07:59N 51°57' E 004°03'0 0.0
2018-Jun-16 07:29N 51°57' E 004°03'0 0.0
2018-Jun-16 06:59N 51°57' E 004°03'0 0.0
2018-Jun-16 06:29N 51°57' E 004°03'0 0.0
2018-Jun-16 05:56N 51°57' E 004°03'0 0.0
2018-Jun-16 05:29N 51°57' E 004°03'0 0.0
2018-Jun-16 04:59N 51°57' E 004°03'0 0.0
2018-Jun-16 04:29N 51°57' E 004°03'0 0.0
2018-Jun-16 03:59N 51°57' E 004°03'0 0.0
2018-Jun-16 03:29N 51°57' E 004°03'0 0.0
2018-Jun-16 02:59N 51°57' E 004°03'0 0.0
2018-Jun-16 02:29N 51°57' E 004°03'0 0.0
2018-Jun-16 01:59N 51°57' E 004°03'0 0.0
2018-Jun-16 01:29N 51°57' E 004°03'0 0.0
2018-Jun-16 00:59N 51°57' E 004°03'0 0.0
2018-Jun-16 00:29N 51°57' E 004°03'0 0.0
2018-Jun-15 23:59N 51°57' E 004°03'0 0.0
2018-Jun-15 23:29N 51°57' E 004°03'0 0.0
2018-Jun-15 22:59N 51°57' E 004°03'0 0.0
2018-Jun-15 22:30N 51°57' E 004°03'0 0.9
2018-Jun-15 22:00N 51°57' E 004°03'0 0.0
2018-Jun-15 21:30N 51°57' E 004°03'0 0.0
2018-Jun-15 21:00N 51°57' E 004°03'0 0.0
2018-Jun-15 20:30N 51°57' E 004°03'0 0.0
2018-Jun-15 20:00N 51°57' E 004°03'0 0.0
2018-Jun-15 19:30N 51°57' E 004°03'0 0.0
2018-Jun-15 19:00N 51°57' E 004°03'0 0.0
2018-Jun-15 18:30N 51°57' E 004°03'0 0.0
2018-Jun-15 18:01N 51°57' E 004°03'1 2.7
2018-Jun-15 17:31N 51°57' E 004°05'1 1.8
2018-Jun-15 16:59N 51°58' E 004°03'0 0.0
2018-Jun-15 16:29N 51°58' E 004°03'0 0.0
2018-Jun-15 15:59N 51°58' E 004°03'0 0.0
2018-Jun-15 15:29N 51°58' E 004°03'0 0.0
2018-Jun-15 14:59N 51°58' E 004°03'0 0.0
2018-Jun-15 14:29N 51°58' E 004°03'0 0.0
2018-Jun-15 13:59N 51°58' E 004°03'0 0.0
2018-Jun-15 13:29N 51°58' E 004°03'0 0.0
2018-Jun-15 12:59N 51°58' E 004°03'0 0.0
2018-Jun-15 12:29N 51°58' E 004°03'0 0.0
2018-Jun-15 11:59N 51°58' E 004°03'0 0.0
2018-Jun-15 11:29N 51°58' E 004°03'0 0.0
2018-Jun-15 10:59N 51°58' E 004°03'0 0.0
2018-Jun-15 10:29N 51°58' E 004°03'0 0.0
2018-Jun-15 09:59N 51°58' E 004°03'0 0.0
2018-Jun-15 09:29N 51°58' E 004°03'0 0.0
2018-Jun-15 08:59N 51°58' E 004°03'0 0.0
2018-Jun-15 08:29N 51°58' E 004°03'0 0.0
2018-Jun-15 07:56N 51°58' E 004°03'0 0.0
2018-Jun-15 07:29N 51°58' E 004°03'0 0.0
2018-Jun-15 06:59N 51°58' E 004°03'0 0.0
2018-Jun-15 06:23N 51°58' E 004°03'0 0.0
2018-Jun-15 05:59N 51°58' E 004°03'0 0.0
2018-Jun-15 05:29N 51°58' E 004°03'0 0.0
2018-Jun-15 04:59N 51°58' E 004°03'0 0.0
2018-Jun-15 04:29N 51°58' E 004°03'0 0.0
2018-Jun-15 03:59N 51°58' E 004°03'0 0.0
2018-Jun-15 03:29N 51°58' E 004°03'0 0.0
2018-Jun-15 02:59N 51°58' E 004°03'0 0.0
2018-Jun-15 02:29N 51°58' E 004°03'0 0.0
2018-Jun-15 01:59N 51°58' E 004°03'0 0.0
2018-Jun-15 01:29N 51°58' E 004°03'0 0.0
2018-Jun-15 00:59N 51°58' E 004°03'0 0.0
2018-Jun-15 00:29N 51°58' E 004°03'0 0.0
2018-Jun-14 23:59N 51°58' E 004°03'0 0.0
2018-Jun-14 23:29N 51°58' E 004°03'0 0.0
2018-Jun-14 22:59N 51°58' E 004°03'0 0.0
2018-Jun-14 22:29N 51°58' E 004°03'0 0.0
2018-Jun-14 21:59N 51°58' E 004°03'0 0.0
2018-Jun-14 21:26N 51°58' E 004°03'0 0.0
2018-Jun-14 20:59N 51°58' E 004°03'0 0.0
2018-Jun-14 20:29N 51°58' E 004°03'0 0.0
2018-Jun-14 19:59N 51°58' E 004°03'0 0.0
2018-Jun-14 19:29N 51°58' E 004°03'0 0.0
2018-Jun-14 18:59N 51°58' E 004°03'0 0.0
2018-Jun-14 18:29N 51°58' E 004°03'0 0.0
2018-Jun-14 17:59N 51°58' E 004°03'0 0.0
2018-Jun-14 17:29N 51°58' E 004°03'0 0.0
2018-Jun-14 16:59N 51°58' E 004°03'0 0.0
2018-Jun-14 16:29N 51°58' E 004°03'0 0.0
2018-Jun-14 15:59N 51°58' E 004°03'0 1.0
2018-Jun-14 15:30N 51°58' E 004°04'  

Dump ship's entire track history